Flight Track Log - Related Links

Times and Time Zones

All times are in EDT time to prevent confusion due to time zone crossing. See the SCX425 flight status page for this flight to view local times or setup timezone preferences in your user account.

Time Position Orientation Groundspeed Altitude Reporting Facility
EDT Latitude Longitude Course Direction KTS MPH feet Rate Location/Type
Thu 03:44:50 PM 44.8740 -93.2300 57° Northeast  Level FlightAware ADS-B
Thu 03:49:00 PM 44.7200 -93.5600 235° Southwest  Level FlightAware Approximate
Thu 03:53:03 PM 44.8760 -93.2390 169° South 140 161  Level FlightAware ADS-B
Thu 03:53:20 PM 44.8640 -93.2360 170° South 165 190 1,300 4,138 Climbing FlightAware ADS-B
Thu 03:53:32 PM 44.8550 -93.2330 167° South 159 183 2,000 2,250 Climbing FlightAware ADS-B
Thu 03:53:52 PM 44.8390 -93.2280 168° South 181 208 2,500 1,500 Climbing FlightAware ADS-B
Thu 03:54:20 PM 44.8160 -93.2390 199° South 208 239 3,200 1,750 Climbing FlightAware ADS-B
Thu 03:54:40 PM 44.8000 -93.2560 217° Southwest 223 257 3,900 2,250 Climbing FlightAware ADS-B
Thu 03:54:52 PM 44.7920 -93.2700 231° Southwest 236 272 4,400 2,700 Climbing FlightAware ADS-B
Thu 03:55:00 PM 44.7870 -93.2800 235° Southwest 240 276 4,800 3,000 Climbing FlightAware ADS-B
Thu 03:55:14 PM 44.7800 -93.3000 244° Southwest 240 276 5,500 2,500 Climbing FlightAware ADS-B
Thu 03:55:36 PM 44.7670 -93.3300 239° Southwest 254 292 6,300 2,182 Climbing FlightAware ADS-B
Thu 03:55:58 PM 44.7530 -93.3620 238° Southwest 269 310 7,100 2,429 Climbing FlightAware ADS-B
Thu 03:56:18 PM 44.7400 -93.3930 239° Southwest 273 314 8,000 2,813 Climbing FlightAware ADS-B
Thu 03:56:30 PM 44.7330 -93.4110 241° Southwest 275 316 8,600 3,188 Climbing FlightAware ADS-B
Thu 03:56:50 PM 44.7200 -93.4420 239° Southwest 271 312 9,700 1,759 Climbing FlightAware ADS-B
Thu 03:57:28 PM 44.6930 -93.5040 239° Southwest 320 368 10,300 1,151 Climbing FlightAware ADS-B
Thu 03:58:03 PM 44.6670 -93.5690 241° Southwest 350 403 11,100 1,629 Climbing FlightAware ADS-B
Thu 03:58:38 PM 44.6380 -93.6390 240° Southwest 365 420 12,200 2,167 Climbing FlightAware ADS-B
Thu 03:59:15 PM 44.6060 -93.7160 240° Southwest 373 429 13,700 2,348 Climbing FlightAware ADS-B
Thu 03:59:47 PM 44.5770 -93.7850 239° Southwest 382 440 14,900 2,239 Climbing FlightAware ADS-B
Thu 04:00:22 PM 44.5450 -93.8610 239° Southwest 391 450 16,200 2,333 Climbing FlightAware ADS-B
Thu 04:00:59 PM 44.5110 -93.9400 239° Southwest 393 452 17,700 2,294 Climbing FlightAware ADS-B
Thu 04:01:30 PM 44.4810 -94.0110 239° Southwest 399 459 18,800 2,000 Climbing FlightAware ADS-B
Thu 04:02:08 PM 44.4480 -94.0890 239° Southwest 405 466 20,000 1,784 Climbing FlightAware ADS-B
Thu 04:02:44 PM 44.4070 -94.1770 237° Southwest 423 487 21,000 1,701 Climbing FlightAware ADS-B
Thu 04:03:15 PM 44.3720 -94.2430 233° Southwest 430 495 21,900 1,765 Climbing FlightAware ADS-B
Thu 04:03:52 PM 44.3260 -94.3290 233° Southwest 434 499 23,000 1,890 Climbing FlightAware ADS-B
Thu 04:04:28 PM 44.2830 -94.4100 233° Southwest 434 499 24,200 1,800 Climbing FlightAware ADS-B
Thu 04:05:02 PM 44.2440 -94.4840 234° Southwest 437 503 25,100 1,457 Climbing FlightAware ADS-B
Thu 04:05:38 PM 44.1980 -94.5680 233° Southwest 445 512 25,900 1,304 Climbing FlightAware ADS-B
Thu 04:06:11 PM 44.1580 -94.6440 234° Southwest 449 517 26,600 1,371 Climbing FlightAware ADS-B
Thu 04:06:48 PM 44.1120 -94.7270 232° Southwest 451 519 27,500 1,479 Climbing FlightAware ADS-B
Thu 04:07:24 PM 44.0650 -94.8130 233° Southwest 453 521 28,400 1,437 Climbing FlightAware ADS-B
Thu 04:07:59 PM 44.0220 -94.8920 233° Southwest 454 522 29,200 1,612 Climbing FlightAware ADS-B
Thu 04:08:31 PM 43.9810 -94.9660 232° Southwest 450 518 30,200 1,846 Climbing FlightAware ADS-B
Thu 04:09:04 PM 43.9400 -95.0410 233° Southwest 444 511 31,200 1,622 Climbing FlightAware ADS-B
Thu 04:09:45 PM 43.8890 -95.1360 233° Southwest 441 507 32,200 1,333 Climbing FlightAware ADS-B
Thu 04:10:16 PM 43.8520 -95.2020 232° Southwest 441 507 32,800 1,233 Climbing FlightAware ADS-B
Thu 04:10:58 PM 43.8010 -95.2990 234° Southwest 439 505 33,700 1,184 Climbing FlightAware ADS-B
Thu 04:11:32 PM 43.7570 -95.3800 233° Southwest 440 506 34,300 794 Climbing FlightAware ADS-B
Thu 04:12:06 PM 43.7180 -95.4500 232° Southwest 446 513 34,600 568 Climbing FlightAware ADS-B
Thu 04:12:46 PM 43.6660 -95.5460 233° Southwest 452 520 35,000 750 Climbing FlightAware ADS-B
Thu 04:13:18 PM 43.6310 -95.6250 239° Southwest 449 517 35,500 882 Climbing FlightAware ADS-B
Thu 04:13:54 PM 43.6000 -95.7140 244° Southwest 449 517 36,000 917 Climbing FlightAware ADS-B
Thu 04:14:30 PM 43.5660 -95.8070 243° Southwest 447 514 36,600 971 Climbing FlightAware ADS-B
Thu 04:15:02 PM 43.5360 -95.8910 244° Southwest 445 512 37,100 882 Climbing FlightAware ADS-B
Thu 04:15:38 PM 43.5040 -95.9800 244° Southwest 444 511 37,600 507 Climbing FlightAware ADS-B
Thu 04:16:13 PM 43.4750 -96.0600 243° Southwest 443 510 37,700 343 Climbing FlightAware ADS-B
Thu 04:16:48 PM 43.4400 -96.1590 244° Southwest 443 510 38,000 247 Climbing FlightAware ADS-B
Thu 04:17:26 PM 43.4060 -96.2520 243° Southwest 442 509 38,000  Level FlightAware ADS-B
Thu 04:17:57 PM 43.3770 -96.3330 244° Southwest 442 509 38,000  Level FlightAware ADS-B
Thu 04:18:30 PM 43.3470 -96.4130 243° Southwest 440 506 38,000  Level FlightAware ADS-B
Thu 04:19:24 PM 43.3020 -96.5350 243° Southwest 440 506 38,000  Level FlightAware ADS-B
Thu 04:19:59 PM 43.2650 -96.6390 244° Southwest 438 504 38,000  Level FlightAware ADS-B
Thu 04:20:45 PM 43.2270 -96.7400 243° Southwest 438 504 38,000  Level FlightAware ADS-B
Thu 04:21:21 PM 43.1910 -96.8370 243° Southwest 437 503 38,000  Level FlightAware ADS-B
Thu 04:22:03 PM 43.1550 -96.9300 242° Southwest 438 504 38,000  Level FlightAware ADS-B
Thu 04:22:47 PM 43.1140 -97.0390 243° Southwest 439 505 38,000  Level FlightAware ADS-B
Thu 04:23:24 PM 43.0840 -97.1160 242° Southwest 439 505 38,000  Level FlightAware ADS-B
Thu 04:24:01 PM 43.0400 -97.2340 243° Southwest 443 510 38,000  Level FlightAware ADS-B
Thu 04:24:39 PM 43.0080 -97.3140 241° Southwest 443 510 38,000  Level FlightAware ADS-B
Thu 04:25:15 PM 42.9690 -97.4190 243° Southwest 448 516 38,000  Level FlightAware ADS-B
Thu 04:25:57 PM 42.9300 -97.5190 242° Southwest 450 518 38,000  Level FlightAware ADS-B
Thu 04:26:44 PM 42.8840 -97.6370 242° Southwest 453 521 38,000  Level FlightAware ADS-B
Thu 04:27:26 PM 42.8450 -97.7410 243° Southwest 455 524 38,000  Level FlightAware ADS-B
Thu 04:28:04 PM 42.8070 -97.8370 242° Southwest 456 525 38,000  Level FlightAware ADS-B
Thu 04:28:57 PM 42.7600 -97.9570 242° Southwest 456 525 38,000  Level FlightAware ADS-B
Thu 04:29:31 PM 42.7320 -98.0310 243° Southwest 456 525 38,000  Level FlightAware ADS-B
Thu 04:30:08 PM 42.7010 -98.1100 242° Southwest 456 525 38,000  Level FlightAware ADS-B
Thu 04:30:45 PM 42.6690 -98.1900 241° Southwest 456 525 38,000  Level FlightAware ADS-B
Thu 04:31:21 PM 42.6390 -98.2680 242° Southwest 456 525 38,000  Level FlightAware ADS-B
Thu 04:31:55 PM 42.6100 -98.3410 242° Southwest 456 525 38,000  Level FlightAware ADS-B
Thu 04:32:31 PM 42.5800 -98.4180 242° Southwest 456 525 38,000  Level FlightAware ADS-B
Thu 04:33:07 PM 42.5500 -98.4960 242° Southwest 456 525 38,000  Level FlightAware ADS-B
Thu 04:33:44 PM 42.5190 -98.5750 242° Southwest 456 525 38,000  Level FlightAware ADS-B
Thu 04:34:21 PM 42.4880 -98.6540 242° Southwest 456 525 38,000  Level FlightAware ADS-B
Thu 04:34:57 PM 42.4570 -98.7320 242° Southwest 456 525 38,000  Level FlightAware ADS-B
Thu 04:35:33 PM 42.4270 -98.8090 242° Southwest 456 525 38,000  Level FlightAware ADS-B
Thu 04:36:09 PM 42.3970 -98.8860 242° Southwest 456 525 38,000  Level FlightAware ADS-B
Thu 04:36:43 PM 42.3680 -98.9590 242° Southwest 456 525 38,000  Level FlightAware ADS-B
Thu 04:37:19 PM 42.3380 -99.0360 242° Southwest 456 525 38,000  Level FlightAware ADS-B
Thu 04:37:58 PM 42.3050 -99.1200 242° Southwest 456 525 38,000  Level FlightAware ADS-B
Thu 04:38:28 PM 42.2178 -99.3872 242° Southwest 447 514 38,000  Level Minneapolis Center
Thu 04:39:16 PM 42.1842 -99.4786 244° Southwest 448 516 38,000  Level Denver Center
Thu 04:40:19 PM 42.1064 -99.6878 243° Southwest 449 517 38,000  Level Denver Center
Thu 04:41:21 PM 42.0567 -99.8214 243° Southwest 452 520 38,000  Level Denver Center
Thu 04:42:23 PM 41.9950 -99.9883 244° Southwest 450 518 38,000  Level Denver Center
Thu 04:43:25 PM 41.9406 -100.1314 243° Southwest 451 519 38,000  Level Denver Center
Thu 04:44:27 PM 41.8778 -100.2981 243° Southwest 448 516 38,000  Level Denver Center
Thu 04:45:29 PM 41.8233 -100.4411 243° Southwest 450 518 38,000  Level Denver Center
Thu 04:51:38 PM 41.4640 -101.3700 243° Southwest 449 517 38,000  Level FlightAware ADS-B
Thu 04:52:14 PM 41.4310 -101.4560 243° Southwest 450 518 38,000  Level FlightAware ADS-B
Thu 04:52:46 PM 41.3990 -101.5370 242° Southwest 450 518 38,000  Level FlightAware ADS-B
Thu 04:53:24 PM 41.3630 -101.6280 242° Southwest 450 518 38,000  Level FlightAware ADS-B
Thu 04:53:57 PM 41.3300 -101.7110 242° Southwest 451 519 38,000  Level FlightAware ADS-B
Thu 04:54:31 PM 41.2970 -101.7940 242° Southwest 450 518 38,000  Level FlightAware ADS-B
Thu 04:55:07 PM 41.2620 -101.8820 242° Southwest 450 518 38,000  Level FlightAware ADS-B
Thu 04:55:43 PM 41.2260 -101.9730 242° Southwest 449 517 38,000  Level FlightAware ADS-B
Thu 04:56:19 PM 41.1920 -102.0570 242° Southwest 448 516 38,000  Level FlightAware ADS-B
Thu 04:56:49 PM 41.1630 -102.1280 242° Southwest 447 514 38,000  Level FlightAware ADS-B
Thu 04:57:29 PM 41.1300 -102.2100 242° Southwest 447 514 38,000  Level FlightAware ADS-B
Thu 04:58:07 PM 41.0870 -102.3160 242° Southwest 445 512 38,000  Level FlightAware ADS-B
Thu 04:58:45 PM 41.0490 -102.4090 242° Southwest 444 511 38,000  Level FlightAware ADS-B
Thu 04:59:19 PM 41.0170 -102.4880 242° Southwest 444 511 38,000  Level FlightAware ADS-B
Thu 04:59:55 PM 40.9810 -102.5770 242° Southwest 444 511 38,000  Level FlightAware ADS-B
Thu 05:00:24 PM 40.9560 -102.6390 242° Southwest 444 511 38,000  Level FlightAware ADS-B
Thu 05:01:03 PM 40.9160 -102.7340 241° Southwest 444 511 38,000  Level FlightAware ADS-B
Thu 05:01:40 PM 40.8800 -102.8230 242° Southwest 444 511 38,000  Level FlightAware ADS-B
Thu 05:02:13 PM 40.8460 -102.9040 241° Southwest 444 511 38,000  Level FlightAware ADS-B
Thu 05:02:49 PM 40.8100 -102.9920 242° Southwest 446 513 38,000  Level FlightAware ADS-B
Thu 05:03:25 PM 40.7750 -103.0780 242° Southwest 447 514 38,000  Level FlightAware ADS-B
Thu 05:03:57 PM 40.7420 -103.1540 240° Southwest 447 514 38,000  Level FlightAware ADS-B
Thu 05:04:32 PM 40.7080 -103.2360 241° Southwest 449 517 38,000  Level FlightAware ADS-B
Thu 05:05:09 PM 40.6710 -103.3270 242° Southwest 449 517 38,000  Level FlightAware ADS-B
Thu 05:05:45 PM 40.6350 -103.4130 241° Southwest 449 517 38,000  Level FlightAware ADS-B
Thu 05:06:19 PM 40.6010 -103.4920 240° Southwest 448 516 38,000  Level FlightAware ADS-B
Thu 05:06:55 PM 40.5650 -103.5770 241° Southwest 447 514 38,000  Level FlightAware ADS-B
Thu 05:07:29 PM 40.5300 -103.6600 241° Southwest 446 513 38,000  Level FlightAware ADS-B
Thu 05:08:03 PM 40.4980 -103.7360 241° Southwest 444 511 38,000  Level FlightAware ADS-B
Thu 05:08:39 PM 40.4600 -103.8260 241° Southwest 444 511 38,000  Level FlightAware ADS-B
Thu 05:09:15 PM 40.4230 -103.9100 240° Southwest 444 511 38,000  Level FlightAware ADS-B
Thu 05:09:51 PM 40.3880 -103.9950 242° Southwest 445 512 38,000  Level FlightAware ADS-B
Thu 05:10:23 PM 40.3550 -104.0700 240° Southwest 445 512 38,000  Level FlightAware ADS-B
Thu 05:10:56 PM 40.3230 -104.1450 241° Southwest 446 513 38,000  Level FlightAware ADS-B
Thu 05:11:34 PM 40.2840 -104.2350 240° Southwest 446 513 38,000  Level FlightAware ADS-B
Thu 05:12:09 PM 40.2500 -104.3210 243° Southwest 447 514 38,000  Level FlightAware ADS-B
Thu 05:12:44 PM 40.2250 -104.4100 250° West 446 513 38,000  Level FlightAware ADS-B
Thu 05:13:22 PM 40.1990 -104.5060 251° West 446 513 38,000  Level FlightAware ADS-B
Thu 05:13:54 PM 40.1780 -104.5880 251° West 447 514 38,000  Level FlightAware ADS-B
Thu 05:14:26 PM 40.1550 -104.6720 250° West 446 513 38,000  Level FlightAware ADS-B
Thu 05:14:58 PM 40.1350 -104.7510 252° West 445 512 38,000  Level FlightAware ADS-B
Thu 05:15:40 PM 40.1070 -104.8580 251° West 444 511 38,000  Level FlightAware ADS-B
Thu 05:16:16 PM 40.0830 -104.9490 251° West 444 511 38,000  Level FlightAware ADS-B
Thu 05:16:48 PM 40.0620 -105.0300 251° West 442 509 38,000  Level FlightAware ADS-B
Thu 05:17:26 PM 40.0370 -105.1260 251° West 441 507 38,000  Level FlightAware ADS-B
Thu 05:18:00 PM 40.0160 -105.2100 252° West 440 506 38,000  Level FlightAware ADS-B
Thu 05:18:36 PM 39.9920 -105.3050 252° West 439 505 38,000  Level FlightAware ADS-B
Thu 05:19:10 PM 39.9710 -105.3880 252° West 438 504 38,000  Level FlightAware ADS-B
Thu 05:19:45 PM 39.9490 -105.4730 251° West 438 504 38,000  Level FlightAware ADS-B
Thu 05:20:20 PM 39.9270 -105.5630 252° West 438 504 38,000  Level FlightAware ADS-B
Thu 05:20:56 PM 39.9040 -105.6540 252° West 437 503 38,000  Level FlightAware ADS-B
Thu 05:21:28 PM 39.8830 -105.7330 251° West 438 504 38,000  Level FlightAware ADS-B
Thu 05:22:05 PM 39.8590 -105.8230 251° West 438 504 38,000  Level FlightAware ADS-B
Thu 05:22:40 PM 39.8330 -105.9110 249° West 439 505 38,000  Level FlightAware ADS-B
Thu 05:23:15 PM 39.8010 -105.9910 243° Southwest 440 506 38,000  Level FlightAware ADS-B
Thu 05:23:50 PM 39.7620 -106.0720 238° Southwest 442 509 38,000  Level FlightAware ADS-B
Thu 05:24:24 PM 39.7220 -106.1500 236° Southwest 443 510 38,000  Level FlightAware ADS-B
Thu 05:24:58 PM 39.6850 -106.2230 237° Southwest 445 512 38,000  Level FlightAware ADS-B
Thu 05:25:32 PM 39.6480 -106.3000 238° Southwest 446 513 38,000  Level FlightAware ADS-B
Thu 05:26:10 PM 39.6050 -106.3860 237° Southwest 446 513 38,000  Level FlightAware ADS-B
Thu 05:26:44 PM 39.5670 -106.4620 237° Southwest 445 512 38,000  Level FlightAware ADS-B
Thu 05:27:20 PM 39.5280 -106.5410 237° Southwest 447 514 38,000  Level FlightAware ADS-B
Thu 05:27:54 PM 39.4900 -106.6170 237° Southwest 446 513 38,000  Level FlightAware ADS-B
Thu 05:28:32 PM 39.4470 -106.7020 237° Southwest 446 513 38,000  Level FlightAware ADS-B
Thu 05:29:02 PM 39.4130 -106.7710 237° Southwest 446 513 38,000  Level FlightAware ADS-B
Thu 05:29:37 PM 39.3760 -106.8450 237° Southwest 445 512 38,000  Level FlightAware ADS-B
Thu 05:30:11 PM 39.3410 -106.9140 237° Southwest 443 510 38,000  Level FlightAware ADS-B
Thu 05:30:46 PM 39.2990 -106.9950 236° Southwest 441 507 38,000  Level FlightAware ADS-B
Thu 05:31:21 PM 39.2580 -107.0770 237° Southwest 440 506 38,000  Level FlightAware ADS-B
Thu 05:32:01 PM 39.2130 -107.1650 237° Southwest 440 506 38,000  Level FlightAware ADS-B
Thu 05:32:31 PM 39.1830 -107.2240 237° Southwest 440 506 38,000  Level FlightAware ADS-B
Thu 05:33:06 PM 39.1400 -107.3090 237° Southwest 440 506 38,000  Level FlightAware ADS-B
Thu 05:33:41 PM 39.1000 -107.3860 236° Southwest 440 506 38,000  Level FlightAware ADS-B
Thu 05:34:17 PM 39.0610 -107.4600 236° Southwest 439 505 38,000  Level FlightAware ADS-B
Thu 05:34:56 PM 39.0170 -107.5470 237° Southwest 440 506 38,000  Level FlightAware ADS-B
Thu 05:35:36 PM 38.9730 -107.6320 236° Southwest 440 506 38,000  Level FlightAware ADS-B
Thu 05:36:09 PM 38.9400 -107.6980 237° Southwest 439 505 38,000  Level FlightAware ADS-B
Thu 05:36:53 PM 38.8880 -107.7980 236° Southwest 441 507 38,000  Level FlightAware ADS-B
Thu 05:37:28 PM 38.8470 -107.8760 236° Southwest 442 509 38,000  Level FlightAware ADS-B
Thu 05:38:00 PM 38.8080 -107.9500 236° Southwest 442 509 38,000  Level FlightAware ADS-B
Thu 05:38:38 PM 38.7660 -108.0310 236° Southwest 443 510 38,000  Level FlightAware ADS-B
Thu 05:39:09 PM 38.7350 -108.0900 236° Southwest 444 511 38,000  Level FlightAware ADS-B
Thu 05:39:52 PM 38.6860 -108.1840 236° Southwest 445 512 38,000  Level FlightAware ADS-B
Thu 05:40:32 PM 38.6340 -108.2820 236° Southwest 446 513 38,000  Level FlightAware ADS-B
Thu 05:41:03 PM 38.6010 -108.3460 237° Southwest 446 513 38,000  Level FlightAware ADS-B
Thu 05:41:40 PM 38.5720 -108.3980 235° Southwest 446 513 38,000  Level FlightAware ADS-B
Thu 05:42:14 PM 38.5230 -108.4920 236° Southwest 445 512 38,000  Level FlightAware ADS-B
Thu 05:42:49 PM 38.4760 -108.5810 236° Southwest 444 511 38,000  Level FlightAware ADS-B
Thu 05:43:24 PM 38.4360 -108.6540 235° Southwest 444 511 38,000  Level FlightAware ADS-B
Thu 05:43:59 PM 38.4000 -108.7210 236° Southwest 443 510 38,000  Level FlightAware ADS-B
Thu 05:44:28 PM 38.3670 -108.7840 236° Southwest 442 509 38,000  Level FlightAware ADS-B
Thu 05:45:07 PM 38.3180 -108.8760 236° Southwest 440 506 38,000  Level FlightAware ADS-B
Thu 05:45:45 PM 38.2730 -108.9590 235° Southwest 438 504 38,000  Level FlightAware ADS-B
Thu 05:46:18 PM 38.2370 -109.0250 235° Southwest 438 504 38,000  Level FlightAware ADS-B
Thu 05:47:00 PM 38.1870 -109.1190 236° Southwest 437 503 38,000  Level FlightAware ADS-B
Thu 05:47:37 PM 38.1500 -109.1860 235° Southwest 437 503 38,000  Level FlightAware ADS-B
Thu 05:48:13 PM 38.1070 -109.2650 235° Southwest 438 504 38,000  Level FlightAware ADS-B
Thu 05:48:45 PM 38.0710 -109.3300 235° Southwest 439 505 38,000  Level FlightAware ADS-B
Thu 05:49:19 PM 38.0320 -109.4020 235° Southwest 441 507 38,000  Level FlightAware ADS-B
Thu 05:49:56 PM 37.9870 -109.4850 235° Southwest 440 506 38,000  Level FlightAware ADS-B
Thu 05:50:33 PM 37.9460 -109.5600 235° Southwest 441 507 38,000  Level FlightAware ADS-B
Thu 05:51:14 PM 37.8940 -109.6550 235° Southwest 442 509 38,000  Level FlightAware ADS-B
Thu 05:51:44 PM 37.8630 -109.7110 235° Southwest 441 507 38,000  Level FlightAware ADS-B
Thu 05:52:24 PM 37.8170 -109.7950 235° Southwest 441 507 38,000  Level FlightAware ADS-B
Thu 05:52:55 PM 37.7840 -109.8540 235° Southwest 441 507 38,000  Level FlightAware ADS-B
Thu 05:53:35 PM 37.7300 -109.9510 235° Southwest 440 506 38,000  Level FlightAware ADS-B
Thu 05:54:09 PM 37.6900 -110.0230 235° Southwest 439 505 38,000  Level FlightAware ADS-B
Thu 05:54:57 PM 37.6460 -110.1030 235° Southwest 439 505 38,000  Level FlightAware ADS-B
Thu 05:55:33 PM 37.6100 -110.1670 235° Southwest 439 505 38,000  Level FlightAware ADS-B
Thu 05:56:10 PM 37.5740 -110.2330 235° Southwest 439 505 38,000  Level FlightAware ADS-B
Thu 05:56:47 PM 37.5370 -110.2990 235° Southwest 439 505 38,000  Level FlightAware ADS-B
Thu 05:57:24 PM 37.5000 -110.3650 235° Southwest 439 505 38,000  Level FlightAware ADS-B
Thu 05:58:00 PM 37.4650 -110.4290 235° Southwest 439 505 38,000  Level FlightAware ADS-B
Thu 05:58:37 PM 37.4280 -110.4950 235° Southwest 439 505 38,000  Level FlightAware ADS-B
Thu 05:59:13 PM 37.3920 -110.5590 235° Southwest 439 505 38,000  Level FlightAware ADS-B
Thu 05:59:44 PM 37.2950 -110.7240 234° Southwest 441 507 38,000  Level FlightAware ADS-B
Thu 06:00:21 PM 37.2510 -110.8040 235° Southwest 443 510 38,000  Level FlightAware ADS-B
Thu 06:00:45 PM 37.2230 -110.8510 233° Southwest 443 510 38,000  Level FlightAware ADS-B
Thu 06:01:23 PM 37.1780 -110.9310 235° Southwest 444 511 38,000  Level FlightAware ADS-B
Thu 06:01:59 PM 37.1340 -111.0080 234° Southwest 445 512 38,000  Level FlightAware ADS-B
Thu 06:02:35 PM 37.0910 -111.0820 234° Southwest 445 512 38,000  Level FlightAware ADS-B
Thu 06:03:07 PM 37.0520 -111.1510 235° Southwest 444 511 38,000  Level FlightAware ADS-B
Thu 06:03:44 PM 37.0100 -111.2240 234° Southwest 443 510 38,000  Level FlightAware ADS-B
Thu 06:04:18 PM 36.9690 -111.2940 234° Southwest 443 510 38,000  Level FlightAware ADS-B
Thu 06:04:52 PM 36.9250 -111.3690 234° Southwest 442 509 38,000  Level FlightAware ADS-B
Thu 06:05:26 PM 36.8850 -111.4390 234° Southwest 441 507 38,000  Level FlightAware ADS-B
Thu 06:06:04 PM 36.8400 -111.5150 234° Southwest 441 507 38,000  Level FlightAware ADS-B
Thu 06:06:54 PM 36.7860 -111.6100 235° Southwest 440 506 38,000  Level FlightAware ADS-B
Thu 06:07:30 PM 36.7370 -111.6920 233° Southwest 441 507 38,000  Level FlightAware ADS-B
Thu 06:08:00 PM 36.7010 -111.7540 234° Southwest 441 507 38,000  Level FlightAware ADS-B
Thu 06:08:38 PM 36.6540 -111.8340 234° Southwest 442 509 38,000  Level FlightAware ADS-B
Thu 06:09:10 PM 36.6160 -111.9000 234° Southwest 443 510 38,000  Level FlightAware ADS-B
Thu 06:09:50 PM 36.5670 -111.9820 233° Southwest 443 510 38,000  Level FlightAware ADS-B
Thu 06:10:22 PM 36.5290 -112.0480 234° Southwest 443 510 38,000  Level FlightAware ADS-B
Thu 06:10:58 PM 36.4850 -112.1220 234° Southwest 444 511 38,000  Level FlightAware ADS-B
Thu 06:11:28 PM 36.4480 -112.1830 233° Southwest 444 511 38,000  Level FlightAware ADS-B
Thu 06:11:58 PM 36.4110 -112.2450 233° Southwest 445 512 38,000  Level FlightAware ADS-B
Thu 06:12:36 PM 36.3650 -112.3190 232° Southwest 444 511 38,000  Level FlightAware ADS-B
Thu 06:13:12 PM 36.3180 -112.3940 232° Southwest 444 511 38,000  Level FlightAware ADS-B
Thu 06:13:43 PM 36.2810 -112.4540 233° Southwest 443 510 38,000  Level FlightAware ADS-B
Thu 06:14:17 PM 36.2380 -112.5230 232° Southwest 442 509 38,000  Level FlightAware ADS-B
Thu 06:14:57 PM 36.1880 -112.6030 232° Southwest 440 506 38,000  Level FlightAware ADS-B
Thu 06:15:32 PM 36.1430 -112.6740 232° Southwest 439 505 38,000  Level FlightAware ADS-B
Thu 06:16:08 PM 36.0980 -112.7460 232° Southwest 438 504 38,000  Level FlightAware ADS-B
Thu 06:16:40 PM 36.0580 -112.8090 232° Southwest 437 503 38,000  Level FlightAware ADS-B
Thu 06:17:17 PM 36.0130 -112.8800 232° Southwest 436 502 38,000  Level FlightAware ADS-B
Thu 06:17:51 PM 35.9700 -112.9490 232° Southwest 436 502 38,000  Level FlightAware ADS-B
Thu 06:18:29 PM 35.9260 -113.0260 235° Southwest 437 503 38,000  Level FlightAware ADS-B
Thu 06:19:01 PM 35.8920 -113.0910 237° Southwest 438 504 38,000  Level FlightAware ADS-B
Thu 06:19:37 PM 35.8460 -113.1640 232° Southwest 440 506 38,000  Level FlightAware ADS-B
Thu 06:20:09 PM 35.8060 -113.2250 231° Southwest 439 505 38,000  Level FlightAware ADS-B
Thu 06:20:43 PM 35.7630 -113.2910 231° Southwest 439 505 38,000  Level FlightAware ADS-B
Thu 06:21:23 PM 35.7120 -113.3720 232° Southwest 439 505 38,000  Level FlightAware ADS-B
Thu 06:21:55 PM 35.6720 -113.4350 232° Southwest 439 505 38,000  Level FlightAware ADS-B
Thu 06:22:33 PM 35.6240 -113.5090 231° Southwest 440 506 38,000  Level FlightAware ADS-B
Thu 06:23:07 PM 35.5800 -113.5760 231° Southwest 440 506 38,000  Level FlightAware ADS-B
Thu 06:23:40 PM 35.5390 -113.6380 231° Southwest 439 505 38,000  Level FlightAware ADS-B
Thu 06:24:15 PM 35.4950 -113.7090 233° Southwest 439 505 38,000  Level FlightAware ADS-B
Thu 06:24:54 PM 35.4480 -113.7810 231° Southwest 441 507 38,000  Level FlightAware ADS-B
Thu 06:25:21 PM 35.4110 -113.8360 230° Southwest 442 509 38,000  Level FlightAware ADS-B
Thu 06:26:03 PM 35.3570 -113.9180 231° Southwest 441 507 38,000  Level FlightAware ADS-B
Thu 06:26:37 PM 35.3120 -113.9860 231° Southwest 442 509 38,000  Level FlightAware ADS-B
Thu 06:27:12 PM 35.2720 -114.0490 232° Southwest 441 507 38,000  Level FlightAware ADS-B
Thu 06:27:43 PM 35.2280 -114.1150 231° Southwest 441 507 38,000  Level FlightAware ADS-B
Thu 06:28:21 PM 35.1790 -114.1880 231° Southwest 441 507 38,000  Level FlightAware ADS-B
Thu 06:28:57 PM 35.1350 -114.2560 232° Southwest 439 505 38,000  Level FlightAware ADS-B
Thu 06:29:33 PM 35.0880 -114.3250 230° Southwest 440 506 38,000  Level FlightAware ADS-B
Thu 06:29:45 PM 35.0700 -114.3440 221° Southwest 439 505 38,000  Level FlightAware ADS-B
Thu 06:30:13 PM 35.0160 -114.3750 205° Southwest 437 503 38,000  Level FlightAware ADS-B
Thu 06:30:50 PM 34.9450 -114.3950 193° South 437 503 38,000  Level FlightAware ADS-B
Thu 06:31:25 PM 34.8740 -114.4140 192° South 438 504 38,000  Level FlightAware ADS-B
Thu 06:31:55 PM 34.8150 -114.4300 193° South 438 504 38,000  Level FlightAware ADS-B
Thu 06:32:33 PM 34.7390 -114.4500 192° South 439 505 38,000  Level FlightAware ADS-B
Thu 06:33:10 PM 34.6660 -114.4680 191° South 441 507 38,000  Level FlightAware ADS-B
Thu 06:33:46 PM 34.5940 -114.4870 192° South 442 509 38,000  Level FlightAware ADS-B
Thu 06:34:17 PM 34.5310 -114.5030 192° South 443 510 38,000  Level FlightAware ADS-B
Thu 06:34:54 PM 34.4610 -114.5270 196° South 443 510 38,000  Level FlightAware ADS-B
Thu 06:35:10 PM 34.4300 -114.5500 211° Southwest 443 510 38,000  Level FlightAware ADS-B
Thu 06:35:29 PM 34.4030 -114.5810 223° Southwest 443 510 38,000  Level FlightAware ADS-B
Thu 06:36:03 PM 34.3740 -114.6590 246° West 446 513 38,000  Level FlightAware ADS-B
Thu 06:36:47 PM 34.3550 -114.7660 258° West 444 511 38,000  Level FlightAware ADS-B
Thu 06:37:22 PM 34.3410 -114.8510 259° West 442 509 38,000  Level FlightAware ADS-B
Thu 06:37:54 PM 34.3290 -114.9260 259° West 441 507 38,000  Level FlightAware ADS-B
Thu 06:38:31 PM 34.3130 -115.0180 258° West 440 506 38,000  Level FlightAware ADS-B
Thu 06:39:14 PM 34.2880 -115.1020 250° West 439 505 38,000  Level FlightAware ADS-B
Thu 06:39:49 PM 34.2570 -115.1970 248° West 439 505 38,000  Level FlightAware ADS-B
Thu 06:40:26 PM 34.2310 -115.2800 249° West 436 502 38,000 -179 Level FlightAware ADS-B
Thu 06:40:56 PM 34.2100 -115.3500 250° West 429 494 37,800 -971 Descending FlightAware ADS-B
Thu 06:41:34 PM 34.1830 -115.4330 249° West 416 479 36,900 -1,437 Descending FlightAware ADS-B
Thu 06:42:07 PM 34.1600 -115.5020 248° West 412 474 36,100 -1,371 Descending FlightAware ADS-B
Thu 06:42:44 PM 34.1340 -115.5810 248° West 410 472 35,300 -1,352 Descending FlightAware ADS-B
Thu 06:43:18 PM 34.1090 -115.6550 248° West 412 474 34,500 -1,391 Descending FlightAware ADS-B
Thu 06:43:53 PM 34.0870 -115.7240 249° West 412 474 33,700 -870 Descending FlightAware ADS-B
Thu 06:44:27 PM 34.0640 -115.7920 248° West 412 474 33,500 -171 Descending FlightAware ADS-B
Thu 06:45:03 PM 34.0420 -115.8580 248° West 412 474 33,500 -1,059 Level FlightAware ADS-B
Thu 06:45:52 PM 34.0050 -115.9730 249° West 418 481 32,000 -1,607 Descending FlightAware ADS-B
Thu 06:45:59 PM 34.0020 -116.0020 263° West 410 472 32,000 -143 Level FlightAware ADS-B
Thu 06:46:34 PM 33.9970 -116.0800 266° West 409 471 31,900 -686 Descending FlightAware ADS-B
Thu 06:47:09 PM 33.9940 -116.1600 267° West 410 472 31,200 -1,268 Descending FlightAware ADS-B
Thu 06:47:45 PM 33.9910 -116.2440 268° West 406 467 30,400 -1,521 Descending FlightAware ADS-B
Thu 06:48:20 PM 33.9880 -116.3220 267° West 397 457 29,400 -1,754 Descending FlightAware ADS-B
Thu 06:48:50 PM 33.9860 -116.3850 268° West 391 450 28,500 -833 Descending FlightAware ADS-B
Thu 06:49:32 PM 33.9820 -116.4640 267° West 390 449 28,400 -1,946 Descending FlightAware ADS-B
Thu 06:50:04 PM 33.9790 -116.5430 267° West 387 445 26,100 -3,273 Descending FlightAware ADS-B
Thu 06:50:38 PM 33.9760 -116.6200 267° West 387 445 24,800 -2,197 Descending FlightAware ADS-B
Thu 06:51:15 PM 33.9730 -116.6970 267° West 384 442 23,500 -2,029 Descending FlightAware ADS-B
Thu 06:51:46 PM 33.9700 -116.7650 267° West 375 432 22,500 -1,800 Descending FlightAware ADS-B
Thu 06:52:25 PM 33.9660 -116.8430 266° West 359 413 21,400 -1,920 Descending FlightAware ADS-B
Thu 06:53:01 PM 33.9630 -116.9160 267° West 352 405 20,100 -2,028 Descending FlightAware ADS-B
Thu 06:53:36 PM 33.9600 -116.9840 267° West 349 402 19,000 -1,676 Descending FlightAware ADS-B
Thu 06:54:09 PM 33.9580 -117.0460 268° West 345 397 18,200 -1,478 Descending FlightAware ADS-B
Thu 06:54:45 PM 33.9510 -117.1130 263° West 335 386 17,300 -1,268 Descending FlightAware ADS-B
Thu 06:55:20 PM 33.9280 -117.1730 245° Southwest 321 369 16,700 -1,147 Descending FlightAware ADS-B
Thu 06:55:53 PM 33.9050 -117.2270 243° Southwest 330 380 16,000 -1,183 Descending FlightAware ADS-B
Thu 06:56:31 PM 33.8800 -117.2870 243° Southwest 327 376 15,300 -1,200 Descending FlightAware ADS-B
Thu 06:56:43 PM 33.8740 -117.3110 253° West 324 373 15,000 -692 Descending FlightAware ADS-B
Thu 06:56:57 PM 33.8740 -117.3330 270° West 322 371 15,000  Level FlightAware ADS-B
Thu 06:57:33 PM 33.8870 -117.3970 284° West 319 367 15,000 -676 Level FlightAware ADS-B
Thu 06:58:08 PM 33.8990 -117.4570 284° West 318 366 14,200 -1,437 Descending FlightAware ADS-B
Thu 06:58:44 PM 33.9110 -117.5190 283° West 317 365 13,300 -1,478 Descending FlightAware ADS-B
Thu 06:59:17 PM 33.9230 -117.5760 284° West 310 357 12,500 -1,500 Descending FlightAware ADS-B
Thu 06:59:52 PM 33.9340 -117.6350 283° West 310 357 11,600 -1,521 Descending FlightAware ADS-B
Thu 07:00:28 PM 33.9460 -117.6950 284° West 306 352 10,700 -1,417 Descending FlightAware ADS-B
Thu 07:01:04 PM 33.9580 -117.7520 284° West 299 344 9,900 -1,418 Descending FlightAware ADS-B
Thu 07:01:23 PM 33.9640 -117.7840 283° West 297 342 9,400 -1,610 Descending FlightAware ADS-B
Thu 07:01:45 PM 33.9710 -117.8200 283° West 296 341 8,800 -1,297 Descending FlightAware ADS-B
Thu 07:02:00 PM 33.9750 -117.8420 282° West 293 337 8,600 -667 Descending FlightAware ADS-B
Thu 07:02:21 PM 33.9820 -117.8770 284° West 278 320 8,400 -563 Descending FlightAware ADS-B
Thu 07:02:32 PM 33.9840 -117.8930 279° West 271 312 8,300 -714 Descending FlightAware ADS-B
Thu 07:03:03 PM 33.9820 -117.9390 267° West 259 298 7,900 -941 Descending FlightAware ADS-B
Thu 07:03:23 PM 33.9790 -117.9660 262° West 257 296 7,500 -1,050 Descending FlightAware ADS-B
Thu 07:03:43 PM 33.9760 -117.9950 263° West 246 283 7,200 -750 Descending FlightAware ADS-B
Thu 07:03:55 PM 33.9740 -118.0100 261° West 236 272 7,100 -686 Descending FlightAware ADS-B
Thu 07:04:18 PM 33.9710 -118.0400 263° West 214 246 6,800 -973 Descending FlightAware ADS-B
Thu 07:04:32 PM 33.9700 -118.0560 266° West 208 239 6,500 -1,371 Descending FlightAware ADS-B
Thu 07:04:53 PM 33.9680 -118.0800 264° West 202 232 6,000 -1,463 Descending FlightAware ADS-B
Thu 07:05:13 PM 33.9660 -118.1020 264° West 197 227 5,500 -1,600 Descending FlightAware ADS-B
Thu 07:05:38 PM 33.9630 -118.1290 262° West 195 224 4,800 -1,600 Descending FlightAware ADS-B
Thu 07:05:58 PM 33.9610 -118.1510 264° West 196 226 4,300 -1,692 Descending FlightAware ADS-B
Thu 07:06:17 PM 33.9590 -118.1720 263° West 195 224 3,700 -1,610 Descending FlightAware ADS-B
Thu 07:06:39 PM 33.9560 -118.1940 261° West 193 222 3,200 -1,317 Descending FlightAware ADS-B
Thu 07:06:58 PM 33.9550 -118.2140 267° West 190 219 2,800 -1,317 Descending FlightAware ADS-B
Thu 07:07:20 PM 33.9520 -118.2380 261° West 188 216 2,300 -1,102 Descending FlightAware ADS-B
Thu 07:07:47 PM 33.9490 -118.2650 262° West 184 212 1,900 -735 Descending FlightAware ADS-B
Thu 07:08:09 PM 33.9470 -118.2850 263° West 176 203 1,700 -545 Descending FlightAware ADS-B
Thu 07:08:20 PM 33.9460 -118.2940 262° West 157 181 1,600 -727 Descending FlightAware ADS-B
Thu 07:08:42 PM 33.9440 -118.3130 263° West 149 171 1,300 -778 Descending FlightAware ADS-B
Thu 07:09:14 PM 33.9410 -118.3400 262° West 141 162 900 -714 Descending FlightAware ADS-B
Thu 07:09:24 PM 33.9410 -118.3480 270° West 139 160 800 -727 Descending FlightAware ADS-B
Thu 07:09:47 PM 33.9390 -118.3660 262° West 135 155 500 -706 Descending FlightAware ADS-B
Thu 07:09:58 PM 33.9380 -118.3710 256° West 145 167 400 -686 Descending FlightAware ADS-B
Thu 07:10:22 PM 33.9360 -118.3940 264° West 137 158 100 -529 Descending FlightAware ADS-B
Thu 07:10:32 PM 33.9360 -118.3980 270° West 127 146 100  Level FlightAware ADS-B
Thu 07:11:14 PM 33.9340 -118.4180 263° West 106 122 100  Level FlightAware ADS-B
Thu 07:11:28 PM 33.9360 -118.4120 68° East 106 122 100  Level FlightAware ADS-B
Thu 07:11:54 PM 33.9340 -118.4250 259° West 106 122 100  Level FlightAware ADS-B

Login

Don't have an account? Register now (free) for customized features, flight alerts, and more!